Hamilton, Canada
Current Conditions -  °F | °C
As of 12:00 PM on Thursday 18 Dec 2014 (Local Time) from CYHM Reporting Station
Light Snow Light Snow  
Wind Chill: 21°   Ceiling: 1500
Heat Index: 30°   Visibility: 15mi
Dew Point: 25°   Wind: 12mph
Humidity: 80%   Direction: 270°W
Pressure: 30.09"   Gusts: 18mph
Location:  43.26°N, 79.89°W
Report Text: CYHM 181700Z 27010G16KT 15SM -SN OVC015 M01/M04 A3009 RMK SC8 SLP200
Loading
Personal Weather Stations






























Interactive Weather Map New forecast layout! Learn more

10-Day Weather Forecast

Advertisements
Track Severe Weather on mobile